createdAt,value
2018-07-27T00:05:01.243Z,8.44
2018-07-27T00:10:56.217Z,7.98
2018-07-27T00:16:51.238Z,8.03
2018-07-27T00:22:46.247Z,7.81
2018-07-27T00:28:41.284Z,7.23
2018-07-27T00:34:36.307Z,7.75
2018-07-27T00:40:31.258Z,7.11
2018-07-27T00:46:26.264Z,7.62
2018-07-27T00:52:21.263Z,7.17
2018-07-27T00:58:16.247Z,7.53
2018-07-27T01:04:11.257Z,8.1
2018-07-27T01:10:06.269Z,7.72
2018-07-27T01:16:01.329Z,8.52
2018-07-27T01:21:56.273Z,8.05
2018-07-27T01:27:51.278Z,8.13
2018-07-27T01:33:46.278Z,7.84
2018-07-27T01:39:41.284Z,8.04
2018-07-27T01:45:36.284Z,7.47
2018-07-27T01:51:31.271Z,8.21
2018-07-27T01:57:26.350Z,8.13
2018-07-27T02:03:21.312Z,7.76
2018-07-27T02:09:16.329Z,8.39
2018-07-27T02:15:11.336Z,7.8
2018-07-27T02:21:06.318Z,7.63
2018-07-27T02:27:01.333Z,8.16
2018-07-27T02:32:56.323Z,8.43
2018-07-27T02:38:51.369Z,8.16
2018-07-27T02:44:46.383Z,8.38
2018-07-27T02:50:41.337Z,8.88
2018-07-27T02:56:36.341Z,8.62
2018-07-27T03:02:31.421Z,8.48
2018-07-27T03:08:26.331Z,8.85
2018-07-27T03:14:21.358Z,7.95
2018-07-27T03:20:16.360Z,7.66
2018-07-27T03:26:11.373Z,8.12
2018-07-27T03:32:06.403Z,8.24
2018-07-27T03:38:01.397Z,8.02
2018-07-27T03:43:56.364Z,8.73
2018-07-27T03:49:51.391Z,8.45
2018-07-27T03:55:46.400Z,8.49
2018-07-27T04:01:41.383Z,8.65
2018-07-27T04:07:36.377Z,9.29
2018-07-27T04:13:31.384Z,8.72
2018-07-27T04:19:26.444Z,8.81
2018-07-27T04:25:21.391Z,8.18
2018-07-27T04:31:16.408Z,8.6
2018-07-27T04:37:11.424Z,8.96
2018-07-27T04:43:06.457Z,8.94
2018-07-27T04:49:01.487Z,9.64
2018-07-27T04:54:56.427Z,8.48
2018-07-27T05:00:51.454Z,8.1
2018-07-27T05:06:46.449Z,8.44
2018-07-27T05:12:41.471Z,9.12
2018-07-27T05:18:36.443Z,10.83
2018-07-27T05:24:31.467Z,10.52
2018-07-27T05:30:26.456Z,10.06
2018-07-27T05:36:21.498Z,9.45
2018-07-27T05:42:16.469Z,10.2
2018-07-27T05:48:11.447Z,9.9
2018-07-27T05:54:06.474Z,10.51
2018-07-27T06:00:01.501Z,10.57
2018-07-27T06:05:56.454Z,10.2
2018-07-27T06:11:51.463Z,11.17
2018-07-27T06:17:46.507Z,10.57
2018-07-27T06:23:41.546Z,10.56
2018-07-27T06:29:36.493Z,10.76
2018-07-27T06:35:31.564Z,9.2
2018-07-27T06:41:26.566Z,9.79
2018-07-27T06:47:21.502Z,9.36
2018-07-27T06:53:16.502Z,10.63
2018-07-27T06:59:11.507Z,10.64
2018-07-27T07:05:06.554Z,9.91
2018-07-27T07:11:01.525Z,9.29
2018-07-27T07:16:56.540Z,8.93
2018-07-27T07:22:51.526Z,8.65
2018-07-27T07:28:46.536Z,8.48
2018-07-27T07:34:41.532Z,8.35
2018-07-27T07:40:36.516Z,7.72
2018-07-27T07:46:31.524Z,7.18
2018-07-27T07:52:26.559Z,7.99
2018-07-27T07:58:21.565Z,7.38
2018-07-27T08:04:16.601Z,7.77
2018-07-27T08:10:11.568Z,7.62
2018-07-27T08:16:06.556Z,7.02
2018-07-27T08:22:01.625Z,7.32
2018-07-27T08:27:56.577Z,6.79
2018-07-27T08:33:51.648Z,7.18
2018-07-27T08:39:46.748Z,6.84
2018-07-27T08:45:41.626Z,6.95
2018-07-27T08:51:36.619Z,6.23
2018-07-27T08:57:31.604Z,6.97
2018-07-27T09:03:26.602Z,6.44
2018-07-27T09:09:21.610Z,6.95
2018-07-27T09:15:16.624Z,6.31
2018-07-27T09:21:11.601Z,6.82
2018-07-27T09:27:06.618Z,6.35
2018-07-27T09:33:01.630Z,6.16
2018-07-27T09:38:56.624Z,5.81
2018-07-27T09:44:51.678Z,5.35
2018-07-27T09:50:46.642Z,5.56
2018-07-27T09:56:41.650Z,5.01
2018-07-27T10:02:36.654Z,4.12
2018-07-27T10:08:31.641Z,4.93
2018-07-27T10:14:26.661Z,3.88
2018-07-27T10:20:21.652Z,5.02
2018-07-27T10:26:16.674Z,5.05
2018-07-27T10:32:11.684Z,5.29
2018-07-27T10:38:06.679Z,4.81
2018-07-27T10:44:01.680Z,4
2018-07-27T10:49:56.845Z,4.37
2018-07-27T10:55:51.684Z,5.86
2018-07-27T11:01:46.752Z,3.5
2018-07-27T11:07:41.723Z,3.8
2018-07-27T11:13:36.704Z,3.26
2018-07-27T11:19:31.719Z,2.58
2018-07-27T11:25:26.745Z,2.56
2018-07-27T11:31:21.776Z,2.66
2018-07-27T11:37:16.739Z,2.99
2018-07-27T11:43:11.735Z,3.77
2018-07-27T11:49:06.749Z,2.5
2018-07-27T11:55:01.748Z,2.47
2018-07-27T12:00:56.775Z,2.48
2018-07-27T12:06:51.800Z,2.57
2018-07-27T12:12:46.754Z,2.69
2018-07-27T12:18:41.788Z,2.39
2018-07-27T12:24:36.778Z,2.97
2018-07-27T12:30:31.823Z,1.62
2018-07-27T12:36:26.758Z,1.36
2018-07-27T12:42:21.771Z,1.85
2018-07-27T12:48:16.803Z,2.28
2018-07-27T12:54:11.786Z,2.2
2018-07-27T13:00:06.821Z,2.36
2018-07-27T13:06:01.802Z,2.84
2018-07-27T13:11:56.779Z,2.71
2018-07-27T13:17:51.816Z,3.18
2018-07-27T13:23:46.794Z,3.66
2018-07-27T13:29:41.827Z,3.1
2018-07-27T13:35:36.813Z,3.81
2018-07-27T13:41:31.862Z,3.33
2018-07-27T13:47:26.897Z,3.76
2018-07-27T13:53:21.839Z,4.08
2018-07-27T13:59:16.835Z,4.1
2018-07-27T14:05:11.839Z,3.66
2018-07-27T14:11:06.835Z,4.07
2018-07-27T14:17:02.194Z,3.75
2018-07-27T14:22:56.851Z,3.75
2018-07-27T14:28:51.910Z,4.2
2018-07-27T14:34:46.870Z,3.9
2018-07-27T14:40:41.918Z,4
2018-07-27T14:46:36.909Z,3.94
2018-07-27T14:52:31.960Z,4.42
2018-07-27T14:58:26.882Z,4.94
2018-07-27T15:04:21.879Z,4.58
2018-07-27T15:10:16.894Z,4.75
2018-07-27T15:16:11.970Z,4.75
2018-07-27T15:22:06.939Z,5.58
2018-07-27T15:28:01.895Z,5.6
2018-07-27T15:33:56.930Z,5.42
2018-07-27T15:39:51.919Z,5.82
2018-07-27T15:45:46.973Z,6.48
2018-07-27T15:51:41.907Z,6.41
2018-07-27T15:57:36.964Z,6.23
2018-07-27T16:03:31.933Z,6.91
2018-07-27T16:09:26.932Z,6.71
2018-07-27T16:15:21.936Z,6.47
2018-07-27T16:21:16.958Z,7.46
2018-07-27T16:27:12.028Z,7.23
2018-07-27T16:33:06.981Z,7.11
2018-07-27T16:39:01.950Z,7.53
2018-07-27T16:44:56.972Z,7.41
2018-07-27T16:50:51.973Z,7.81
2018-07-27T16:56:47.036Z,6.65
2018-07-27T17:02:41.973Z,6.96
2018-07-27T17:08:37.018Z,6.18
2018-07-27T17:14:32.025Z,6.54
2018-07-27T17:20:27.001Z,6.69
2018-07-27T17:26:22.019Z,7.15
2018-07-27T17:32:17.051Z,7.07
2018-07-27T17:38:12.029Z,7.42
2018-07-27T17:44:07.025Z,7.11
2018-07-27T17:50:02.007Z,7.25
2018-07-27T17:55:57.029Z,7.82
2018-07-27T18:01:52.056Z,7.33
2018-07-27T18:07:47.240Z,7.69
2018-07-27T18:13:42.085Z,7.15
2018-07-27T18:19:37.031Z,7.7
2018-07-27T18:25:32.051Z,7.51
2018-07-27T18:31:27.060Z,8.12
2018-07-27T18:37:22.150Z,7.32
2018-07-27T18:43:17.086Z,7.62
2018-07-27T18:49:12.127Z,8
2018-07-27T18:55:07.093Z,7.85
2018-07-27T19:01:02.070Z,7.98
2018-07-27T19:06:57.095Z,7.63
2018-07-27T19:12:52.155Z,7.63
2018-07-27T19:18:47.092Z,7.48
2018-07-27T19:24:42.081Z,7.7
2018-07-27T19:30:37.096Z,7.65
2018-07-27T19:36:32.134Z,7.71
2018-07-27T19:42:27.104Z,8
2018-07-27T19:48:22.102Z,7.8
2018-07-27T19:54:17.118Z,8.1
2018-07-27T20:00:12.105Z,7.93
2018-07-27T20:06:07.104Z,8.43
2018-07-27T20:12:02.118Z,8.35
2018-07-27T20:17:57.112Z,8.7
2018-07-27T20:23:52.120Z,9.85
2018-07-27T20:29:47.120Z,9.16
2018-07-27T20:35:42.133Z,9.43
2018-07-27T20:41:37.177Z,9.93
2018-07-27T20:47:32.166Z,9.57
2018-07-27T20:53:27.198Z,9.44
2018-07-27T20:59:22.137Z,9.95
2018-07-27T21:05:17.138Z,9.37
2018-07-27T21:11:12.156Z,9.94
2018-07-27T21:17:07.200Z,10.26
2018-07-27T21:23:02.172Z,10.49
2018-07-27T21:28:57.169Z,9.93
2018-07-27T21:34:52.159Z,10.64
2018-07-27T21:40:47.192Z,10.86
2018-07-27T21:46:42.194Z,10.48
2018-07-27T21:52:37.216Z,10.96
2018-07-27T21:58:32.207Z,10.29
2018-07-27T22:04:27.323Z,10.26
2018-07-27T22:10:22.197Z,10.7
2018-07-27T22:16:17.218Z,10.46
2018-07-27T22:22:12.220Z,11.05
2018-07-27T22:28:07.226Z,11.49
2018-07-27T22:34:02.226Z,11.55
2018-07-27T22:39:57.255Z,11.28
2018-07-27T22:45:52.242Z,11.29
2018-07-27T22:51:47.283Z,12.35
2018-07-27T22:57:42.232Z,11.91
2018-07-27T23:03:37.263Z,12.59
2018-07-27T23:09:32.228Z,14.39
2018-07-27T23:15:27.259Z,13.15
2018-07-27T23:21:22.266Z,12.95
2018-07-27T23:27:17.288Z,12.37
2018-07-27T23:33:12.248Z,12.69
2018-07-27T23:39:07.254Z,13.76
2018-07-27T23:45:02.265Z,14.52
2018-07-27T23:50:57.289Z,14.35
2018-07-27T23:56:52.302Z,14.23
